createdAt,value
2022-09-16T00:00:58.089Z,989.28
2022-09-16T00:01:58.088Z,989.28
2022-09-16T00:02:58.023Z,989.29
2022-09-16T00:03:57.978Z,989.29
2022-09-16T00:04:57.953Z,989.26
2022-09-16T00:05:57.929Z,989.32
2022-09-16T00:06:57.925Z,989.29
2022-09-16T00:07:57.900Z,989.27
2022-09-16T00:08:57.871Z,989.25
2022-09-16T00:09:57.851Z,989.25
2022-09-16T00:10:57.825Z,989.26
2022-09-16T00:11:57.831Z,989.26
2022-09-16T00:12:57.780Z,989.28
2022-09-16T00:14:57.738Z,989.29
2022-09-16T00:15:57.816Z,989.25
2022-09-16T00:16:57.773Z,989.27
2022-09-16T00:17:57.722Z,989.26
2022-09-16T00:18:57.651Z,989.26
2022-09-16T00:19:57.641Z,989.28
2022-09-16T00:20:57.614Z,989.22
2022-09-16T00:21:57.592Z,989.27
2022-09-16T00:22:58.259Z,989.26
2022-09-16T00:23:57.549Z,989.26
2022-09-16T00:24:57.529Z,989.24
2022-09-16T00:25:57.513Z,989.23
2022-09-16T00:26:57.489Z,989.21
2022-09-16T00:27:57.457Z,989.21
2022-09-16T00:28:57.442Z,989.21
2022-09-16T00:29:57.428Z,989.21
2022-09-16T00:30:57.439Z,989.21
2022-09-16T00:31:57.413Z,989.20
2022-09-16T00:32:57.365Z,989.20
2022-09-16T00:33:57.340Z,989.18
2022-09-16T00:34:57.316Z,989.20
2022-09-16T00:35:57.291Z,989.20
2022-09-16T00:36:57.314Z,989.19
2022-09-16T00:37:58.183Z,989.15
2022-09-16T00:39:06.125Z,989.16
2022-09-16T00:40:50.743Z,989.19
2022-09-16T00:41:50.877Z,989.15
2022-09-16T00:42:50.643Z,989.18
2022-09-16T00:43:50.801Z,989.17
2022-09-16T00:44:50.487Z,989.20
2022-09-16T00:45:50.454Z,989.14
2022-09-16T00:46:50.519Z,989.14
2022-09-16T00:47:50.410Z,989.11
2022-09-16T00:48:50.399Z,989.10
2022-09-16T00:50:50.364Z,989.12
2022-09-16T00:51:50.349Z,989.09
2022-09-16T00:52:50.303Z,989.08
2022-09-16T00:53:50.291Z,989.08
2022-09-16T00:54:50.267Z,989.11
2022-09-16T00:55:50.250Z,989.12
2022-09-16T00:56:50.255Z,989.13
2022-09-16T00:57:50.240Z,989.14
2022-09-16T00:58:50.176Z,989.11
2022-09-16T00:59:50.157Z,989.12
2022-09-16T01:00:50.177Z,989.07
2022-09-16T01:01:50.178Z,989.12
2022-09-16T01:02:50.097Z,989.12
2022-09-16T01:03:50.072Z,989.11
2022-09-16T01:04:50.045Z,989.10
2022-09-16T01:05:50.030Z,989.10
2022-09-16T01:06:50.005Z,989.08
2022-09-16T01:07:49.980Z,989.07
2022-09-16T01:08:49.968Z,989.06
2022-09-16T01:09:49.939Z,989.08
2022-09-16T01:10:50.110Z,989.09
2022-09-16T01:11:49.911Z,989.10
2022-09-16T01:12:49.952Z,989.06
2022-09-16T01:13:49.865Z,989.07
2022-09-16T01:14:49.874Z,989.10
2022-09-16T01:15:49.860Z,989.11
2022-09-16T01:16:49.797Z,989.10
2022-09-16T01:17:49.768Z,989.07
2022-09-16T01:18:49.746Z,989.10
2022-09-16T01:19:49.734Z,989.03
2022-09-16T01:20:49.765Z,989.03
2022-09-16T01:21:49.684Z,989.00
2022-09-16T01:22:49.663Z,989.00
2022-09-16T01:23:49.638Z,989.06
2022-09-16T01:24:49.617Z,989.07
2022-09-16T01:25:49.594Z,989.07
2022-09-16T01:26:49.574Z,989.07
2022-09-16T01:27:49.553Z,989.08
2022-09-16T01:28:49.539Z,989.05
2022-09-16T01:29:49.514Z,989.08
2022-09-16T01:30:49.490Z,989.09
2022-09-16T01:31:49.586Z,989.08
2022-09-16T01:32:49.450Z,989.08
2022-09-16T01:33:49.431Z,989.07
2022-09-16T01:34:49.416Z,989.12
2022-09-16T01:35:49.381Z,989.09
2022-09-16T01:36:49.356Z,989.12
2022-09-16T01:37:49.335Z,989.08
2022-09-16T01:38:49.317Z,989.07
2022-09-16T01:39:49.319Z,989.06
2022-09-16T01:40:49.270Z,989.09
2022-09-16T01:41:49.267Z,989.09
2022-09-16T01:42:49.224Z,989.07
2022-09-16T01:43:49.210Z,989.08
2022-09-16T01:44:49.205Z,989.10
2022-09-16T01:45:49.163Z,989.09
2022-09-16T01:46:49.186Z,989.09
2022-09-16T01:47:49.134Z,989.12
2022-09-16T01:48:53.527Z,989.14
2022-09-16T01:49:49.073Z,989.12
2022-09-16T01:51:49.031Z,989.12
2022-09-16T01:52:49.016Z,989.10
2022-09-16T01:53:48.986Z,989.10
2022-09-16T01:54:48.970Z,989.11
2022-09-16T01:55:48.974Z,989.13
2022-09-16T01:56:48.992Z,989.16
2022-09-16T01:57:48.994Z,989.16
2022-09-16T01:58:48.917Z,989.22
2022-09-16T01:59:48.919Z,989.19
2022-09-16T02:00:48.910Z,989.17
2022-09-16T02:01:49.007Z,989.20
2022-09-16T02:02:48.847Z,989.23
2022-09-16T02:03:48.859Z,989.21
2022-09-16T02:04:48.841Z,989.20
2022-09-16T02:05:48.820Z,989.21
2022-09-16T02:06:48.781Z,989.21
2022-09-16T02:07:48.744Z,989.19
2022-09-16T02:08:48.761Z,989.20
2022-09-16T02:09:48.718Z,989.21
2022-09-16T02:10:48.702Z,989.21
2022-09-16T02:11:48.669Z,989.17
2022-09-16T02:12:48.632Z,989.19
2022-09-16T02:13:48.612Z,989.18
2022-09-16T02:14:48.668Z,989.20
2022-09-16T02:15:48.592Z,989.22
2022-09-16T02:16:48.489Z,989.19
2022-09-16T02:17:48.503Z,989.17
2022-09-16T02:18:48.470Z,989.17
2022-09-16T02:19:48.428Z,989.17
2022-09-16T02:20:48.405Z,989.14
2022-09-16T02:21:48.395Z,989.17
2022-09-16T02:22:48.367Z,989.13
2022-09-16T02:23:48.351Z,989.13
2022-09-16T02:24:48.320Z,989.12
2022-09-16T02:25:48.311Z,989.15
2022-09-16T02:26:48.283Z,989.11
2022-09-16T02:27:48.261Z,989.15
2022-09-16T02:28:48.245Z,989.13
2022-09-16T02:29:48.213Z,989.10
2022-09-16T02:30:48.191Z,989.09
2022-09-16T02:31:48.893Z,989.09
2022-09-16T02:32:48.148Z,989.07
2022-09-16T02:33:48.129Z,989.07
2022-09-16T02:34:48.116Z,989.09
2022-09-16T02:35:48.082Z,989.11
2022-09-16T02:36:48.066Z,989.08
2022-09-16T02:37:48.049Z,989.07
2022-09-16T02:38:48.021Z,989.04
2022-09-16T02:39:48.034Z,989.06
2022-09-16T02:40:47.977Z,989.05
2022-09-16T02:41:47.960Z,989.03
2022-09-16T02:42:47.952Z,989.04
2022-09-16T02:43:47.942Z,989.10
2022-09-16T02:44:47.951Z,989.04
2022-09-16T02:45:47.874Z,989.08
2022-09-16T02:46:47.901Z,989.07
2022-09-16T02:47:47.837Z,989.07
2022-09-16T02:48:47.805Z,989.08
2022-09-16T02:49:47.784Z,989.09
2022-09-16T02:50:47.756Z,989.11
2022-09-16T02:51:47.737Z,989.09
2022-09-16T02:52:47.721Z,989.10
2022-09-16T02:53:47.814Z,989.14
2022-09-16T02:54:47.681Z,989.12
2022-09-16T02:55:47.658Z,989.14
2022-09-16T02:56:47.638Z,989.10
2022-09-16T02:57:47.616Z,989.09
2022-09-16T02:58:47.592Z,989.13
2022-09-16T02:59:47.570Z,989.14
2022-09-16T03:00:47.540Z,989.16
2022-09-16T03:01:47.585Z,989.13
2022-09-16T03:02:47.543Z,989.16
2022-09-16T03:03:47.486Z,989.12
2022-09-16T03:04:47.464Z,989.08
2022-09-16T03:05:47.440Z,989.03
2022-09-16T03:06:47.410Z,988.97
2022-09-16T03:07:47.394Z,988.91
2022-09-16T03:08:47.431Z,988.87
2022-09-16T03:09:47.339Z,988.88
2022-09-16T03:10:47.326Z,988.96
2022-09-16T03:11:47.304Z,988.97
2022-09-16T03:12:47.279Z,989.02
2022-09-16T03:13:47.255Z,989.08
2022-09-16T03:14:47.250Z,989.13
2022-09-16T03:15:47.238Z,989.16
2022-09-16T03:16:47.210Z,989.14
2022-09-16T03:17:47.169Z,989.11
2022-09-16T03:18:47.156Z,989.13
2022-09-16T03:19:47.132Z,989.09
2022-09-16T03:20:47.103Z,989.08
2022-09-16T03:21:47.093Z,989.08
2022-09-16T03:22:47.063Z,989.03
2022-09-16T03:23:47.096Z,989.02
2022-09-16T03:24:47.020Z,989.04
2022-09-16T03:25:47.017Z,989.02
2022-09-16T03:26:46.979Z,988.96
2022-09-16T03:27:46.962Z,988.97
2022-09-16T03:28:46.960Z,989.00
2022-09-16T03:29:46.913Z,989.02
2022-09-16T03:30:46.954Z,989.07
2022-09-16T03:31:46.875Z,989.06
2022-09-16T03:32:46.856Z,989.06
2022-09-16T03:33:46.827Z,989.10
2022-09-16T03:34:46.807Z,989.08
2022-09-16T03:35:46.794Z,989.09
2022-09-16T03:36:46.785Z,989.05
2022-09-16T03:37:46.739Z,989.07
2022-09-16T03:38:46.762Z,989.11
2022-09-16T03:39:46.755Z,989.08
2022-09-16T03:40:46.673Z,989.11
2022-09-16T03:41:46.652Z,989.07
2022-09-16T03:42:46.637Z,989.08
2022-09-16T03:43:46.609Z,989.09
2022-09-16T03:44:46.587Z,989.07
2022-09-16T03:45:46.572Z,989.07
2022-09-16T03:46:46.542Z,989.03
2022-09-16T03:47:46.515Z,989.01
2022-09-16T03:48:46.511Z,989.01
2022-09-16T03:49:46.485Z,989.02
2022-09-16T03:50:46.502Z,988.98
2022-09-16T03:51:46.438Z,988.98
2022-09-16T03:52:46.422Z,988.99
2022-09-16T03:53:46.426Z,988.99
2022-09-16T03:54:46.375Z,989.02
2022-09-16T03:55:46.341Z,989.00
2022-09-16T03:56:46.349Z,988.99
2022-09-16T03:57:46.299Z,988.96
2022-09-16T03:58:46.290Z,989.01
2022-09-16T03:59:46.342Z,989.04
2022-09-16T04:00:46.238Z,989.05
2022-09-16T04:01:46.230Z,989.06
2022-09-16T04:02:46.228Z,988.99
2022-09-16T04:03:46.170Z,989.02
2022-09-16T04:04:46.167Z,989.00
2022-09-16T04:05:46.132Z,989.01
2022-09-16T04:06:46.105Z,989.03
2022-09-16T04:07:46.081Z,989.03
2022-09-16T04:08:46.069Z,989.01
2022-09-16T04:09:46.042Z,989.01
2022-09-16T04:10:46.017Z,989.00
2022-09-16T04:11:46.006Z,989.05
2022-09-16T04:12:45.971Z,989.02
2022-09-16T04:13:45.994Z,988.97
2022-09-16T04:14:45.988Z,989.00
2022-09-16T04:15:45.990Z,989.00
2022-09-16T04:16:45.880Z,988.96
2022-09-16T04:17:45.902Z,988.94
2022-09-16T04:18:45.844Z,988.96
2022-09-16T04:19:45.864Z,988.94
2022-09-16T04:20:45.871Z,988.97
2022-09-16T04:21:45.778Z,988.96
2022-09-16T04:22:45.753Z,988.98
2022-09-16T04:23:45.735Z,988.97
2022-09-16T04:24:45.722Z,988.94
2022-09-16T04:25:45.723Z,988.92
2022-09-16T04:26:45.717Z,988.90
2022-09-16T04:27:45.727Z,988.94
2022-09-16T04:28:45.671Z,988.89
2022-09-16T04:29:45.617Z,988.91
2022-09-16T04:30:45.608Z,988.89
2022-09-16T04:31:45.556Z,988.89
2022-09-16T04:32:45.550Z,988.88
2022-09-16T04:33:45.514Z,988.89
2022-09-16T04:34:45.497Z,988.87
2022-09-16T04:35:45.473Z,988.88
2022-09-16T04:36:45.457Z,988.84
2022-09-16T04:37:45.426Z,988.85
2022-09-16T04:38:45.406Z,988.88
2022-09-16T04:39:45.402Z,988.86
2022-09-16T04:40:45.355Z,988.86
2022-09-16T04:41:45.342Z,988.84
2022-09-16T04:42:45.345Z,988.86
2022-09-16T04:43:45.313Z,988.83
2022-09-16T04:44:45.281Z,988.84
2022-09-16T04:45:45.262Z,988.87
2022-09-16T04:46:45.249Z,988.86
2022-09-16T04:47:45.218Z,988.86
2022-09-16T04:48:45.186Z,988.86
2022-09-16T04:49:45.161Z,988.88
2022-09-16T04:50:45.149Z,988.84
2022-09-16T04:51:45.120Z,988.89
2022-09-16T04:52:45.107Z,988.89
2022-09-16T04:53:45.181Z,988.91
2022-09-16T04:54:45.054Z,988.90
2022-09-16T04:55:45.031Z,988.89
2022-09-16T04:56:45.078Z,988.88
2022-09-16T04:57:44.994Z,988.88
2022-09-16T04:58:44.994Z,988.88
2022-09-16T04:59:45.029Z,988.90
2022-09-16T05:00:44.996Z,988.91
2022-09-16T05:01:44.943Z,988.87
2022-09-16T05:02:44.916Z,988.84
2022-09-16T05:03:44.942Z,988.85
2022-09-16T05:04:44.851Z,988.84
2022-09-16T05:05:44.817Z,988.86
2022-09-16T05:06:44.810Z,988.84
2022-09-16T05:07:44.801Z,988.86
2022-09-16T05:08:44.776Z,988.83
2022-09-16T05:09:44.732Z,988.86
2022-09-16T05:10:44.703Z,988.83
2022-09-16T05:11:44.714Z,988.87
2022-09-16T05:12:49.242Z,988.85
2022-09-16T05:13:44.745Z,988.88
2022-09-16T05:14:44.618Z,988.91
2022-09-16T05:15:47.618Z,988.89
2022-09-16T05:16:44.581Z,988.89
2022-09-16T05:17:51.146Z,988.83
2022-09-16T05:18:44.547Z,988.84
2022-09-16T05:19:44.587Z,988.82
2022-09-16T05:20:44.561Z,988.81
2022-09-16T05:21:44.578Z,988.81
2022-09-16T05:22:44.548Z,988.81
2022-09-16T05:23:46.988Z,988.82
2022-09-16T05:24:44.398Z,988.82
2022-09-16T05:25:44.379Z,988.80
2022-09-16T05:26:44.395Z,988.77
2022-09-16T05:27:44.398Z,988.77
2022-09-16T05:28:44.360Z,988.76
2022-09-16T05:29:44.392Z,988.79
2022-09-16T05:30:44.313Z,988.78
2022-09-16T05:31:44.242Z,988.80
2022-09-16T05:32:44.222Z,988.83
2022-09-16T05:33:44.301Z,988.85
2022-09-16T05:34:44.185Z,988.85
2022-09-16T05:35:44.164Z,988.87
2022-09-16T05:36:44.152Z,988.86
2022-09-16T05:37:44.114Z,988.86
2022-09-16T05:38:59.126Z,988.89
2022-09-16T05:39:44.082Z,988.91
2022-09-16T05:40:44.048Z,988.91
2022-09-16T05:41:44.026Z,988.83
2022-09-16T05:42:44.003Z,988.84
2022-09-16T05:43:43.985Z,988.88
2022-09-16T05:44:43.975Z,988.92
2022-09-16T05:45:44.090Z,988.84
2022-09-16T05:46:43.945Z,988.88
2022-09-16T05:47:43.900Z,988.89
2022-09-16T05:48:43.942Z,988.87
2022-09-16T05:49:43.858Z,988.86
2022-09-16T05:50:43.826Z,988.89
2022-09-16T05:51:43.817Z,988.90
2022-09-16T05:52:43.787Z,988.90
2022-09-16T05:53:43.766Z,988.97
2022-09-16T05:54:43.740Z,988.95
2022-09-16T05:55:43.717Z,988.95
2022-09-16T05:56:43.702Z,988.94
2022-09-16T05:57:43.687Z,988.94
2022-09-16T05:58:43.679Z,988.95
2022-09-16T05:59:43.639Z,988.97
2022-09-16T06:00:43.622Z,988.95
2022-09-16T06:01:43.791Z,988.94
2022-09-16T06:02:43.661Z,988.97
2022-09-16T06:03:43.584Z,989.01
2022-09-16T06:04:43.523Z,989.02
2022-09-16T06:05:45.777Z,988.99
2022-09-16T06:06:43.498Z,989.00
2022-09-16T06:07:43.463Z,989.02
2022-09-16T06:08:43.443Z,989.02
2022-09-16T06:09:43.426Z,988.97
2022-09-16T06:10:43.404Z,989.00
2022-09-16T06:11:43.499Z,988.97
2022-09-16T06:12:43.360Z,988.96
2022-09-16T06:13:43.334Z,988.95
2022-09-16T06:14:43.316Z,988.93
2022-09-16T06:15:43.338Z,988.98
2022-09-16T06:16:43.288Z,988.97
2022-09-16T06:17:43.347Z,988.96
2022-09-16T06:18:43.230Z,988.97
2022-09-16T06:19:43.215Z,989.00
2022-09-16T06:20:43.179Z,988.97
2022-09-16T06:21:43.183Z,988.99
2022-09-16T06:22:43.180Z,988.99
2022-09-16T06:23:43.157Z,988.98
2022-09-16T06:24:43.134Z,988.99
2022-09-16T06:25:43.139Z,988.93
2022-09-16T06:26:43.109Z,988.95
2022-09-16T06:27:43.122Z,988.91
2022-09-16T06:28:43.052Z,988.90
2022-09-16T06:29:43.033Z,988.93
2022-09-16T06:30:43.038Z,988.93
2022-09-16T06:31:42.998Z,988.94
2022-09-16T06:32:42.931Z,988.95
2022-09-16T06:33:43.007Z,988.99
2022-09-16T06:34:42.899Z,988.94
2022-09-16T06:35:42.863Z,988.90
2022-09-16T06:36:45.099Z,988.90
2022-09-16T06:37:42.844Z,988.88
2022-09-16T06:38:42.805Z,988.93
2022-09-16T06:39:42.780Z,988.92
2022-09-16T06:40:42.756Z,988.91
2022-09-16T06:41:42.738Z,988.93
2022-09-16T06:42:42.720Z,988.90
2022-09-16T06:43:42.711Z,988.90
2022-09-16T06:44:42.674Z,988.87
2022-09-16T06:45:42.705Z,988.89
2022-09-16T06:46:42.651Z,988.85
2022-09-16T06:47:42.626Z,988.85
2022-09-16T06:48:42.621Z,988.88
2022-09-16T06:49:42.668Z,988.84
2022-09-16T06:50:42.582Z,988.85
2022-09-16T06:51:42.532Z,988.86
2022-09-16T06:52:42.509Z,988.89
2022-09-16T06:53:42.496Z,988.88
2022-09-16T06:54:42.471Z,988.89
2022-09-16T06:55:42.442Z,988.83
2022-09-16T06:56:42.419Z,988.90
2022-09-16T06:57:42.397Z,988.89
2022-09-16T06:58:42.386Z,988.90
2022-09-16T06:59:42.376Z,988.89
2022-09-16T07:00:42.363Z,988.91
2022-09-16T07:01:42.369Z,988.92
2022-09-16T07:02:42.413Z,988.90
2022-09-16T07:03:42.282Z,988.91
2022-09-16T07:04:42.254Z,988.94
2022-09-16T07:05:42.329Z,988.92
2022-09-16T07:07:08.167Z,988.87
2022-09-16T07:07:42.255Z,988.91
2022-09-16T07:08:42.182Z,988.84
2022-09-16T07:09:42.159Z,988.87
2022-09-16T07:10:42.139Z,988.87
2022-09-16T07:11:42.107Z,988.93
2022-09-16T07:12:42.112Z,988.83
2022-09-16T07:13:42.086Z,988.91
2022-09-16T07:14:42.081Z,988.89
2022-09-16T07:16:02.287Z,988.87
2022-09-16T07:16:42.037Z,988.87
2022-09-16T07:17:41.994Z,988.90
2022-09-16T07:18:42.041Z,988.93
2022-09-16T07:19:41.958Z,988.94
2022-09-16T07:20:41.938Z,988.91
2022-09-16T07:21:42.035Z,988.94
2022-09-16T07:22:41.894Z,989.00
2022-09-16T07:23:41.904Z,988.98
2022-09-16T07:24:41.909Z,988.96
2022-09-16T07:25:41.824Z,989.00
2022-09-16T07:26:41.812Z,989.01
2022-09-16T07:27:41.789Z,989.02
2022-09-16T07:28:41.791Z,989.02
2022-09-16T07:29:41.808Z,989.02
2022-09-16T07:30:41.749Z,989.02
2022-09-16T07:31:41.710Z,989.05
2022-09-16T07:32:41.697Z,989.09
2022-09-16T07:33:41.675Z,989.07
2022-09-16T07:34:41.691Z,989.10
2022-09-16T07:35:41.630Z,989.07
2022-09-16T07:36:41.617Z,989.10
2022-09-16T07:37:42.735Z,989.08
2022-09-16T07:38:41.572Z,989.10
2022-09-16T07:39:41.550Z,989.13
2022-09-16T07:40:41.569Z,989.17
2022-09-16T07:41:41.511Z,989.15
2022-09-16T07:42:41.502Z,989.13
2022-09-16T07:43:41.503Z,989.11
2022-09-16T07:44:41.466Z,989.12
2022-09-16T07:45:41.480Z,989.13
2022-09-16T07:46:41.426Z,989.11
2022-09-16T07:47:41.398Z,989.13
2022-09-16T07:48:41.386Z,989.08
2022-09-16T07:49:41.375Z,989.12
2022-09-16T07:50:41.343Z,989.12
2022-09-16T07:51:41.323Z,989.13
2022-09-16T07:52:41.365Z,989.13
2022-09-16T07:53:41.385Z,989.11
2022-09-16T07:54:41.264Z,989.21
2022-09-16T07:55:41.289Z,989.15
2022-09-16T07:56:41.235Z,989.14
2022-09-16T07:57:41.217Z,989.17
2022-09-16T07:58:41.237Z,989.17
2022-09-16T07:59:41.177Z,989.13
2022-09-16T08:00:41.157Z,989.16
2022-09-16T08:01:43.496Z,989.15
2022-09-16T08:02:41.170Z,989.20
2022-09-16T08:03:41.119Z,989.13
2022-09-16T08:04:41.077Z,989.13
2022-09-16T08:05:41.053Z,989.16
2022-09-16T08:06:41.058Z,989.13
2022-09-16T08:07:41.023Z,989.12
2022-09-16T08:08:41.016Z,989.12
2022-09-16T08:09:45.094Z,989.12
2022-09-16T08:10:40.962Z,989.09
2022-09-16T08:11:40.946Z,989.12
2022-09-16T08:12:40.933Z,989.17
2022-09-16T08:13:40.910Z,989.16
2022-09-16T08:14:40.888Z,989.22
2022-09-16T08:15:40.870Z,989.24
2022-09-16T08:16:40.896Z,989.23
2022-09-16T08:17:40.838Z,989.26
2022-09-16T08:18:40.824Z,989.27
2022-09-16T08:19:40.799Z,989.28
2022-09-16T08:20:40.781Z,989.26
2022-09-16T08:21:40.783Z,989.28
2022-09-16T08:22:40.754Z,989.27
2022-09-16T08:23:40.721Z,989.25
2022-09-16T08:24:40.703Z,989.22
2022-09-16T08:25:40.802Z,989.26
2022-09-16T08:26:40.809Z,989.23
2022-09-16T08:27:40.718Z,989.25
2022-09-16T08:28:45.610Z,989.26
2022-09-16T08:29:40.641Z,989.26
2022-09-16T08:30:40.597Z,989.24
2022-09-16T08:31:40.641Z,989.29
2022-09-16T08:32:40.557Z,989.30
2022-09-16T08:33:40.541Z,989.24
2022-09-16T08:34:40.542Z,989.24
2022-09-16T08:35:40.506Z,989.28
2022-09-16T08:36:40.577Z,989.29
2022-09-16T08:37:40.478Z,989.29
2022-09-16T08:38:40.451Z,989.30
2022-09-16T08:39:40.436Z,989.33
2022-09-16T08:40:40.416Z,989.35
2022-09-16T08:41:40.499Z,989.34
2022-09-16T08:42:40.383Z,989.32
2022-09-16T08:43:40.362Z,989.35
2022-09-16T08:44:40.352Z,989.35
2022-09-16T08:45:40.355Z,989.21
2022-09-16T08:46:40.305Z,989.42
2022-09-16T08:47:40.321Z,989.44
2022-09-16T08:48:40.284Z,989.45
2022-09-16T08:49:43.906Z,989.45
2022-09-16T08:50:40.235Z,989.37
2022-09-16T08:51:40.210Z,989.41
2022-09-16T08:52:40.190Z,989.39
2022-09-16T08:53:40.183Z,989.42
2022-09-16T08:54:40.149Z,989.37
2022-09-16T08:55:40.136Z,989.37
2022-09-16T08:56:44.274Z,989.39
2022-09-16T08:57:40.216Z,989.42
2022-09-16T08:58:40.178Z,989.36
2022-09-16T08:59:40.069Z,989.40
2022-09-16T09:00:40.096Z,989.35
2022-09-16T09:01:40.314Z,989.39
2022-09-16T09:03:40.001Z,989.34
2022-09-16T09:04:39.981Z,989.42
2022-09-16T09:05:39.955Z,989.39
2022-09-16T09:06:39.945Z,989.33
2022-09-16T09:07:39.918Z,989.33
2022-09-16T09:08:39.921Z,989.43
2022-09-16T09:09:39.889Z,989.35
2022-09-16T09:10:39.898Z,989.36
2022-09-16T09:11:39.857Z,989.37
2022-09-16T09:12:41.173Z,989.43
2022-09-16T09:13:39.948Z,989.45
2022-09-16T09:14:39.798Z,989.42
2022-09-16T09:15:39.784Z,989.44
2022-09-16T09:16:39.811Z,989.41
2022-09-16T09:17:48.098Z,989.37
2022-09-16T09:18:39.728Z,989.33
2022-09-16T09:19:39.715Z,989.37
2022-09-16T09:20:39.693Z,989.36
2022-09-16T09:21:39.683Z,989.30
2022-09-16T09:22:39.660Z,989.28
2022-09-16T09:23:39.654Z,989.30
2022-09-16T09:24:39.644Z,989.23
2022-09-16T09:25:39.630Z,989.26
2022-09-16T09:26:39.593Z,989.31
2022-09-16T09:27:39.579Z,989.30
2022-09-16T09:28:39.564Z,989.32
2022-09-16T09:29:39.675Z,989.28
2022-09-16T09:30:39.541Z,989.32
2022-09-16T09:31:39.580Z,989.28
2022-09-16T09:32:48.970Z,989.26
2022-09-16T09:33:46.663Z,989.28
2022-09-16T09:34:41.618Z,989.30
2022-09-16T09:35:39.461Z,989.29
2022-09-16T09:36:39.444Z,989.29
2022-09-16T09:37:39.424Z,989.26
2022-09-16T09:38:39.418Z,989.24
2022-09-16T09:39:39.417Z,989.27
2022-09-16T09:40:39.380Z,989.24
2022-09-16T09:41:39.373Z,989.22
2022-09-16T09:42:39.362Z,989.24
2022-09-16T09:44:39.318Z,989.21
2022-09-16T09:45:39.481Z,989.17
2022-09-16T09:46:39.296Z,989.22
2022-09-16T09:47:39.271Z,989.24
2022-09-16T09:48:39.276Z,989.23
2022-09-16T09:49:39.238Z,989.21
2022-09-16T09:50:39.219Z,989.20
2022-09-16T09:51:39.204Z,989.25
2022-09-16T09:52:39.189Z,989.20
2022-09-16T09:53:39.169Z,989.24
2022-09-16T09:54:39.156Z,989.21
2022-09-16T09:55:39.149Z,989.20
2022-09-16T09:56:39.120Z,989.23
2022-09-16T09:57:39.106Z,989.27
2022-09-16T09:58:39.099Z,989.32
2022-09-16T09:59:39.076Z,989.27
2022-09-16T10:00:39.091Z,989.23
2022-09-16T10:01:39.207Z,989.23
2022-09-16T10:02:39.043Z,989.21
2022-09-16T10:03:39.041Z,989.23
2022-09-16T10:04:39.005Z,989.19
2022-09-16T10:05:38.981Z,989.18
2022-09-16T10:06:38.982Z,989.17
2022-09-16T10:07:38.964Z,989.19
2022-09-16T10:08:38.941Z,989.18
2022-09-16T10:09:38.929Z,989.19
2022-09-16T10:10:38.906Z,989.15
2022-09-16T10:11:38.896Z,989.17
2022-09-16T10:12:38.879Z,989.18
2022-09-16T10:13:38.867Z,989.21
2022-09-16T10:14:38.852Z,989.21
2022-09-16T10:15:38.832Z,989.17
2022-09-16T10:16:38.850Z,989.16
2022-09-16T10:17:38.921Z,989.16
2022-09-16T10:18:38.789Z,989.14
2022-09-16T10:19:38.781Z,989.20
2022-09-16T10:20:38.764Z,989.19
2022-09-16T10:21:38.749Z,989.20
2022-09-16T10:22:38.736Z,989.17
2022-09-16T10:23:38.737Z,989.13
2022-09-16T10:24:38.713Z,989.11
2022-09-16T10:25:38.703Z,989.11
2022-09-16T10:26:38.677Z,989.16
2022-09-16T10:27:38.672Z,989.17
2022-09-16T10:28:38.657Z,989.22
2022-09-16T10:29:38.643Z,989.17
2022-09-16T10:30:38.629Z,989.15
2022-09-16T10:31:38.670Z,989.11
2022-09-16T10:32:38.601Z,989.08
2022-09-16T10:33:38.699Z,989.09
2022-09-16T10:34:38.574Z,989.07
2022-09-16T10:35:38.563Z,988.99
2022-09-16T10:36:38.568Z,988.99
2022-09-16T10:37:38.560Z,989.01
2022-09-16T10:38:38.528Z,989.04
2022-09-16T10:39:38.505Z,989.00
2022-09-16T10:40:38.525Z,988.93
2022-09-16T10:41:38.483Z,988.97
2022-09-16T10:42:38.480Z,988.97
2022-09-16T10:43:38.472Z,988.94
2022-09-16T10:44:38.448Z,988.96
2022-09-16T10:45:38.445Z,988.94
2022-09-16T10:46:38.488Z,988.91
2022-09-16T10:47:38.435Z,988.98
2022-09-16T10:48:38.397Z,988.94
2022-09-16T10:49:38.481Z,988.96
2022-09-16T10:50:38.365Z,988.97
2022-09-16T10:51:38.354Z,988.99
2022-09-16T10:52:38.345Z,988.91
2022-09-16T10:53:42.770Z,988.95
2022-09-16T10:54:38.311Z,988.94
2022-09-16T10:55:38.291Z,988.88
2022-09-16T10:56:38.280Z,988.89
2022-09-16T10:57:38.267Z,988.89
2022-09-16T10:58:38.248Z,988.86
2022-09-16T10:59:38.230Z,988.86
2022-09-16T11:00:40.282Z,988.85
2022-09-16T11:01:40.759Z,988.90
2022-09-16T11:02:38.186Z,988.92
2022-09-16T11:03:38.167Z,988.90
2022-09-16T11:04:38.193Z,988.92
2022-09-16T11:05:38.242Z,988.92
2022-09-16T11:06:38.134Z,988.90
2022-09-16T11:07:38.102Z,988.94
2022-09-16T11:08:38.086Z,988.88
2022-09-16T11:09:38.076Z,988.92
2022-09-16T11:10:38.385Z,988.88
2022-09-16T11:11:38.078Z,988.87
2022-09-16T11:12:38.023Z,988.87
2022-09-16T11:13:38.231Z,988.84
2022-09-16T11:14:37.996Z,988.90
2022-09-16T11:15:37.973Z,988.89
2022-09-16T11:16:38.029Z,988.91
2022-09-16T11:17:37.934Z,988.85
2022-09-16T11:18:37.946Z,988.87
2022-09-16T11:19:37.905Z,988.86
2022-09-16T11:20:37.941Z,988.90
2022-09-16T11:21:37.973Z,988.84
2022-09-16T11:22:37.851Z,988.89
2022-09-16T11:23:37.841Z,988.91
2022-09-16T11:24:37.821Z,988.97
2022-09-16T11:25:37.804Z,988.96
2022-09-16T11:26:37.794Z,988.91
2022-09-16T11:27:37.803Z,988.96
2022-09-16T11:28:37.769Z,989.02
2022-09-16T11:29:37.747Z,989.00
2022-09-16T11:30:37.749Z,989.02
2022-09-16T11:31:37.769Z,989.04
2022-09-16T11:32:37.770Z,989.01
2022-09-16T11:33:37.694Z,989.01
2022-09-16T11:34:37.684Z,989.03
2022-09-16T11:35:37.677Z,988.96
2022-09-16T11:36:37.655Z,988.97
2022-09-16T11:37:37.755Z,989.03
2022-09-16T11:38:39.934Z,989.02
2022-09-16T11:39:37.622Z,989.06
2022-09-16T11:40:37.636Z,989.07
2022-09-16T11:41:37.589Z,989.03
2022-09-16T11:42:37.617Z,989.01
2022-09-16T11:43:37.602Z,989.00
2022-09-16T11:44:37.571Z,988.99
2022-09-16T11:45:37.580Z,989.02
2022-09-16T11:46:37.595Z,988.97
2022-09-16T11:47:40.711Z,988.97
2022-09-16T11:48:37.502Z,989.01
2022-09-16T11:49:37.485Z,989.01
2022-09-16T11:50:37.468Z,989.00
2022-09-16T11:51:37.452Z,989.00
2022-09-16T11:52:37.460Z,989.03
2022-09-16T11:53:41.279Z,989.00
2022-09-16T11:54:37.405Z,989.01
2022-09-16T11:55:37.394Z,988.95
2022-09-16T11:56:37.377Z,989.03
2022-09-16T11:57:37.370Z,988.94
2022-09-16T11:58:37.346Z,988.99
2022-09-16T11:59:37.334Z,988.98
2022-09-16T12:00:37.313Z,988.96
2022-09-16T12:01:37.336Z,988.88
2022-09-16T12:02:37.321Z,988.89
2022-09-16T12:03:37.272Z,988.85
2022-09-16T12:04:38.348Z,988.83
2022-09-16T12:05:37.285Z,988.85
2022-09-16T12:06:37.241Z,988.85
2022-09-16T12:07:37.245Z,988.82
2022-09-16T12:08:37.210Z,988.77
2022-09-16T12:09:37.332Z,988.81
2022-09-16T12:10:37.223Z,988.80
2022-09-16T12:11:37.172Z,988.80
2022-09-16T12:12:37.156Z,988.81
2022-09-16T12:13:37.180Z,988.73
2022-09-16T12:14:37.135Z,988.74
2022-09-16T12:15:37.153Z,988.78
2022-09-16T12:16:37.212Z,988.77
2022-09-16T12:17:37.109Z,988.79
2022-09-16T12:18:37.083Z,988.78
2022-09-16T12:19:37.077Z,988.75
2022-09-16T12:20:37.071Z,988.74
2022-09-16T12:21:37.051Z,988.77
2022-09-16T12:22:37.048Z,988.79
2022-09-16T12:23:37.033Z,988.82
2022-09-16T12:24:37.012Z,988.86
2022-09-16T12:25:37.108Z,988.87
2022-09-16T12:26:37.019Z,988.90
2022-09-16T12:27:36.992Z,988.81
2022-09-16T12:28:36.973Z,988.80
2022-09-16T12:29:37.029Z,988.90
2022-09-16T12:30:36.999Z,988.90
2022-09-16T12:31:37.036Z,988.91
2022-09-16T12:32:36.948Z,988.89
2022-09-16T12:33:36.929Z,988.88
2022-09-16T12:34:36.962Z,988.81